createdAt,value
2018-11-22T00:02:05.511Z,45.17
2018-11-22T00:04:33.915Z,48.80
2018-11-22T00:07:02.256Z,50.90
2018-11-22T00:09:30.648Z,46.30
2018-11-22T00:11:59.010Z,51.50
2018-11-22T00:14:27.786Z,48.97
2018-11-22T00:34:20.983Z,49.97
2018-11-22T00:36:49.646Z,47.83
2018-11-22T00:39:17.991Z,49.40
2018-11-22T00:41:46.323Z,46.97
2018-11-22T00:44:14.699Z,48.90
2018-11-22T00:46:43.030Z,49.13
2018-11-22T00:49:11.384Z,47.30
2018-11-22T00:51:39.716Z,50.97
2018-11-22T00:54:08.160Z,54.97
2018-11-22T00:56:36.457Z,52.40
2018-11-22T00:59:04.929Z,55.07
2018-11-22T12:17:34.350Z,62.30
2018-11-22T12:20:02.726Z,61.53
2018-11-22T12:22:31.094Z,65.50
2018-11-22T12:24:59.645Z,69.60
2018-11-22T12:27:28.025Z,61.57
2018-11-22T12:29:56.530Z,70.67
2018-11-22T12:32:30.135Z,69.60
2018-11-22T12:35:00.077Z,59.63
2018-11-22T12:37:31.602Z,58.70
2018-11-22T12:40:00.116Z,65.07
2018-11-22T12:42:28.446Z,61.47
2018-11-22T12:45:02.064Z,67.43
2018-11-22T12:47:31.170Z,61.53
2018-11-22T12:50:00.502Z,61.93
2018-11-22T12:52:30.222Z,66.83
2018-11-22T12:54:58.595Z,64.03
2018-11-22T12:57:27.220Z,72.47
2018-11-22T12:59:55.976Z,70.27
2018-11-22T13:02:24.324Z,57.43
2018-11-22T13:04:53.094Z,71.20
2018-11-22T13:07:21.910Z,89.23
2018-11-22T13:09:50.231Z,89.97
2018-11-22T13:12:18.614Z,77.97
2018-11-22T13:14:47.396Z,66.20
2018-11-22T13:17:15.715Z,66.53
2018-11-22T13:19:44.129Z,76.23
2018-11-22T13:22:12.506Z,68.07
2018-11-22T13:24:40.911Z,69.63
2018-11-22T13:27:09.244Z,61.60
2018-11-22T13:29:37.613Z,71.00
2018-11-22T13:32:06.047Z,69.07
2018-11-22T13:34:34.481Z,72.63
2018-11-22T13:37:02.828Z,68.23
2018-11-22T13:39:31.196Z,77.20
2018-11-22T13:41:59.549Z,76.30
2018-11-22T13:44:27.939Z,72.27
2018-11-22T13:46:56.407Z,71.93
2018-11-22T13:49:24.755Z,75.37
2018-11-22T13:51:53.086Z,75.67
2018-11-22T13:54:21.427Z,78.67
2018-11-22T13:56:49.751Z,80.63
2018-11-22T13:59:18.171Z,89.47
2018-11-22T14:01:46.521Z,71.23
2018-11-22T14:04:14.893Z,72.20
2018-11-22T14:06:43.266Z,79.77
2018-11-22T14:09:11.938Z,90.20
2018-11-22T14:11:40.444Z,77.33
2018-11-22T14:14:09.191Z,71.20
2018-11-22T14:16:37.538Z,82.50
2018-11-22T14:19:05.898Z,74.73
2018-11-22T14:21:34.260Z,76.50
2018-11-22T14:24:02.601Z,79.70
2018-11-22T14:26:30.935Z,75.53
2018-11-22T14:28:59.320Z,71.03
2018-11-22T14:31:27.639Z,77.20
2018-11-22T14:33:55.969Z,72.77
2018-11-22T14:36:24.268Z,75.37
2018-11-22T14:38:52.966Z,80.87
2018-11-22T14:41:21.274Z,78.80
2018-11-22T14:43:49.783Z,79.00
2018-11-22T14:46:18.122Z,89.27
2018-11-22T14:48:46.495Z,75.83
2018-11-22T14:51:20.017Z,76.47
2018-11-22T14:53:48.337Z,84.93
2018-11-22T14:56:16.723Z,84.77
2018-11-22T14:58:45.021Z,84.87
2018-11-22T15:01:13.377Z,82.07
2018-11-22T15:03:42.104Z,81.10
2018-11-22T15:06:10.481Z,79.70
2018-11-22T15:08:38.843Z,84.87
2018-11-22T15:11:07.295Z,78.77
2018-11-22T15:13:35.678Z,83.93
2018-11-22T15:16:04.089Z,87.03
2018-11-22T15:18:32.493Z,91.57
2018-11-22T15:21:01.155Z,83.00
2018-11-22T15:23:29.243Z,83.93
2018-11-22T15:25:57.539Z,82.50
2018-11-22T15:28:25.848Z,86.83
2018-11-22T15:30:54.183Z,81.87
2018-11-22T15:33:22.706Z,83.67
2018-11-22T15:35:51.004Z,86.47
2018-11-22T15:38:19.381Z,87.90
2018-11-22T15:40:47.832Z,82.00
2018-11-22T15:43:16.191Z,75.77
2018-11-22T15:45:44.572Z,82.40
2018-11-22T15:48:12.905Z,80.93
2018-11-22T15:50:42.966Z,85.43
2018-11-22T15:53:11.305Z,92.37
2018-11-22T15:55:39.640Z,80.63
2018-11-22T15:58:08.234Z,85.70
2018-11-22T16:00:36.588Z,113.03
2018-11-22T16:03:05.177Z,84.47
2018-11-22T16:05:33.830Z,84.73
2018-11-22T16:08:02.188Z,79.20
2018-11-22T16:10:32.012Z,76.10
2018-11-22T16:13:02.265Z,88.27
2018-11-22T16:15:36.251Z,78.17
2018-11-22T16:18:05.103Z,82.23
2018-11-22T16:20:33.472Z,86.43
2018-11-22T16:23:01.852Z,76.00
2018-11-22T16:25:30.316Z,81.43
2018-11-22T16:27:58.593Z,83.03
2018-11-22T16:30:28.069Z,87.60
2018-11-22T16:32:56.665Z,80.57
2018-11-22T16:35:28.784Z,77.27
2018-11-22T16:37:54.347Z,85.47
2018-11-22T16:40:24.081Z,81.87
2018-11-22T16:42:53.339Z,86.37
2018-11-22T16:45:25.881Z,84.37
2018-11-22T16:47:54.362Z,86.53
2018-11-22T16:50:24.031Z,80.30
2018-11-22T16:52:52.662Z,81.07
2018-11-22T16:55:21.419Z,72.10
2018-11-22T16:57:50.762Z,90.73
2018-11-22T17:00:23.331Z,78.10
2018-11-22T17:02:52.803Z,68.23
2018-11-22T17:05:21.386Z,80.57
2018-11-22T17:07:50.194Z,81.47
2018-11-22T17:10:22.950Z,82.83
2018-11-22T17:12:52.738Z,86.90
2018-11-22T17:15:22.374Z,88.67
2018-11-22T17:17:51.060Z,90.53
2018-11-22T17:20:20.292Z,86.47
2018-11-22T17:22:49.286Z,89.63
2018-11-22T17:25:19.627Z,87.33
2018-11-22T17:27:49.647Z,83.93
2018-11-22T17:30:33.253Z,82.33
2018-11-22T17:33:01.620Z,84.17
2018-11-22T17:35:30.514Z,87.20
2018-11-22T17:38:00.239Z,86.67
2018-11-22T17:40:29.950Z,87.73
2018-11-22T17:42:58.358Z,85.50
2018-11-22T17:45:29.978Z,83.13
2018-11-22T17:47:58.395Z,76.40
2018-11-22T17:50:30.054Z,80.30
2018-11-22T17:52:58.526Z,79.60
2018-11-22T17:55:27.730Z,76.20
2018-11-22T17:57:56.065Z,87.63
2018-11-22T18:00:26.634Z,78.87
2018-11-22T18:02:56.267Z,86.27
2018-11-22T18:05:27.384Z,82.10
2018-11-22T18:07:53.030Z,76.47
2018-11-22T18:10:22.892Z,74.83
2018-11-22T18:12:51.966Z,72.47
2018-11-22T18:15:21.109Z,79.53
2018-11-22T18:17:49.956Z,70.93
2018-11-22T18:20:20.323Z,90.50
2018-11-22T18:22:49.656Z,86.37
2018-11-22T18:25:21.290Z,74.50
2018-11-22T18:27:49.785Z,72.77
2018-11-22T18:30:19.586Z,78.73
2018-11-22T18:32:50.642Z,76.73
2018-11-22T18:35:19.012Z,74.30
2018-11-22T18:37:47.411Z,76.70
2018-11-22T18:40:20.699Z,77.47
2018-11-22T18:42:49.979Z,74.67
2018-11-22T18:45:23.605Z,76.47
2018-11-22T18:47:52.027Z,81.53
2018-11-22T18:50:21.870Z,86.80
2018-11-22T18:52:50.256Z,82.33
2018-11-22T18:55:18.709Z,85.70
2018-11-22T18:57:47.214Z,78.60
2018-11-22T19:00:21.351Z,78.37
2018-11-22T19:02:49.946Z,73.43
2018-11-22T19:05:18.821Z,75.13
2018-11-22T19:07:48.446Z,75.27
2018-11-22T19:10:18.425Z,77.53
2018-11-22T19:12:48.138Z,72.10
2018-11-22T19:15:17.749Z,70.73
2018-11-22T19:17:46.508Z,72.53
2018-11-22T19:20:17.261Z,71.70
2018-11-22T19:22:46.767Z,74.67
2018-11-22T19:25:15.223Z,71.10
2018-11-22T19:27:44.043Z,76.00
2018-11-22T19:30:14.534Z,74.53
2018-11-22T19:32:43.627Z,75.60
2018-11-22T19:35:12.880Z,77.43
2018-11-22T19:37:41.542Z,67.60
2018-11-22T19:40:20.682Z,75.03
2018-11-22T19:42:50.304Z,71.60
2018-11-22T19:45:19.654Z,80.97
2018-11-22T19:47:48.436Z,78.40
2018-11-22T19:50:18.267Z,72.43
2018-11-22T19:52:47.357Z,78.23
2018-11-22T19:55:18.420Z,81.70
2018-11-22T19:57:48.223Z,98.90
2018-11-22T20:00:17.748Z,79.80
2018-11-22T20:02:46.810Z,77.83
2018-11-22T20:05:16.406Z,82.20
2018-11-22T20:07:45.781Z,100.83
2018-11-22T20:10:17.173Z,125.07
2018-11-22T20:12:45.516Z,88.77
2018-11-22T20:15:14.857Z,87.53
2018-11-22T20:17:43.828Z,81.07
2018-11-22T20:20:13.370Z,82.43
2018-11-22T20:22:42.028Z,86.17
2018-11-22T20:25:10.627Z,85.37
2018-11-22T20:27:39.670Z,84.57
2018-11-22T20:30:14.947Z,99.70
2018-11-22T20:32:43.653Z,85.13
2018-11-22T20:35:14.273Z,81.93
2018-11-22T20:37:43.287Z,81.67
2018-11-22T20:40:12.982Z,80.67
2018-11-22T20:42:41.655Z,81.53
2018-11-22T20:45:11.866Z,87.03
2018-11-22T20:47:40.968Z,81.83
2018-11-22T20:50:12.427Z,75.60
2018-11-22T20:52:40.859Z,86.30
2018-11-22T20:55:19.895Z,82.33
2018-11-22T20:57:49.419Z,82.90
2018-11-22T21:00:20.172Z,85.83
2018-11-22T21:02:48.574Z,80.07
2018-11-22T21:05:17.826Z,76.63
2018-11-22T21:07:46.443Z,84.10
2018-11-22T21:10:16.731Z,87.60
2018-11-22T21:12:45.040Z,86.47
2018-11-22T21:15:16.703Z,79.43
2018-11-22T21:17:45.672Z,74.07
2018-11-22T21:20:15.492Z,81.87
2018-11-22T21:22:43.836Z,95.00
2018-11-22T21:25:13.659Z,80.83
2018-11-22T21:27:42.022Z,79.93
2018-11-22T21:30:16.063Z,74.80
2018-11-22T21:32:45.263Z,65.37
2018-11-22T21:35:13.792Z,70.50
2018-11-22T21:37:42.519Z,76.27
2018-11-22T21:40:11.540Z,83.97
2018-11-22T21:42:40.462Z,76.13
2018-11-22T21:45:13.580Z,79.87
2018-11-22T21:47:42.387Z,77.27
2018-11-22T21:50:12.091Z,73.77
2018-11-22T21:52:40.452Z,79.47
2018-11-22T21:55:11.147Z,79.77
2018-11-22T21:57:40.408Z,86.07
2018-11-22T22:00:12.613Z,73.77
2018-11-22T22:02:40.960Z,74.23
2018-11-22T22:05:09.754Z,74.50
2018-11-22T22:07:38.316Z,183.50
2018-11-22T22:10:06.772Z,224.93
2018-11-22T22:12:35.348Z,85.97
2018-11-22T22:15:03.942Z,73.37
2018-11-22T22:17:32.334Z,78.87
2018-11-22T22:20:00.695Z,65.83
2018-11-22T22:22:29.050Z,72.43
2018-11-22T22:24:57.440Z,69.73
2018-11-22T22:27:25.792Z,75.37
2018-11-22T22:29:54.177Z,74.20
2018-11-22T22:32:22.834Z,65.93
2018-11-22T22:34:51.179Z,69.73
2018-11-22T22:37:19.527Z,69.03
2018-11-22T22:39:47.913Z,68.20
2018-11-22T22:42:16.281Z,60.20
2018-11-22T22:44:44.639Z,73.80
2018-11-22T22:47:12.983Z,64.57
2018-11-22T22:49:41.321Z,64.83
2018-11-22T22:52:09.692Z,73.40
2018-11-22T22:54:38.015Z,62.03
2018-11-22T22:57:06.403Z,57.40
2018-11-22T22:59:34.764Z,70.70
2018-11-22T23:02:03.112Z,59.93
2018-11-22T23:04:31.437Z,63.33
2018-11-22T23:06:59.816Z,59.33
2018-11-22T23:09:28.176Z,68.40
2018-11-22T23:11:56.551Z,64.90
2018-11-22T23:14:24.915Z,69.13
2018-11-22T23:16:53.290Z,64.07
2018-11-22T23:19:21.660Z,70.97
2018-11-22T23:21:50.013Z,62.73
2018-11-22T23:24:19.742Z,66.13
2018-11-22T23:26:48.075Z,66.07
2018-11-22T23:29:16.442Z,60.97
2018-11-22T23:31:44.826Z,64.73
2018-11-22T23:34:13.164Z,68.60
2018-11-22T23:36:41.511Z,64.80
2018-11-22T23:39:10.794Z,69.20
2018-11-22T23:41:39.439Z,62.37
2018-11-22T23:44:07.828Z,65.50
2018-11-22T23:46:36.185Z,66.27
2018-11-22T23:49:04.997Z,59.80
2018-11-22T23:51:33.321Z,70.27
2018-11-22T23:54:01.830Z,74.60
2018-11-22T23:56:30.176Z,65.23
2018-11-22T23:58:58.507Z,74.43
